sensor_id;sensor_type;location;lat;lon;timestamp;temperature;humidity
7317;DHT22;3699;51.462;6.696;2022-11-20T00:00:16;0.10;99.90
7317;DHT22;3699;51.462;6.696;2022-11-20T00:02:44;-0.10;99.90
7317;DHT22;3699;51.462;6.696;2022-11-20T00:05:11;-0.10;99.90
7317;DHT22;3699;51.462;6.696;2022-11-20T00:07:38;0.00;99.90
7317;DHT22;3699;51.462;6.696;2022-11-20T00:10:05;0.10;99.90
7317;DHT22;3699;51.462;6.696;2022-11-20T00:12:32;-0.10;99.90
7317;DHT22;3699;51.462;6.696;2022-11-20T00:14:58;0.10;99.90
7317;DHT22;3699;51.462;6.696;2022-11-20T00:17:25;0.10;99.90
7317;DHT22;3699;51.462;6.696;2022-11-20T00:19:53;0.00;99.90
7317;DHT22;3699;51.462;6.696;2022-11-20T00:22:20;0.70;99.90
7317;DHT22;3699;51.462;6.696;2022-11-20T00:24:46;0.00;99.90
7317;DHT22;3699;51.462;6.696;2022-11-20T00:27:13;0.00;99.90
7317;DHT22;3699;51.462;6.696;2022-11-20T00:29:40;0.10;99.90
7317;DHT22;3699;51.462;6.696;2022-11-20T00:32:06;-0.20;99.90
7317;DHT22;3699;51.462;6.696;2022-11-20T00:34:33;0.00;99.90
7317;DHT22;3699;51.462;6.696;2022-11-20T00:37:01;0.00;99.90
7317;DHT22;3699;51.462;6.696;2022-11-20T00:41:55;0.20;99.90
7317;DHT22;3699;51.462;6.696;2022-11-20T00:44:22;0.80;99.90
7317;DHT22;3699;51.462;6.696;2022-11-20T00:46:48;0.00;99.90
7317;DHT22;3699;51.462;6.696;2022-11-20T00:49:15;0.20;99.90
7317;DHT22;3699;51.462;6.696;2022-11-20T00:51:42;0.20;99.90
7317;DHT22;3699;51.462;6.696;2022-11-20T00:54:10;0.10;99.90
7317;DHT22;3699;51.462;6.696;2022-11-20T00:56:36;0.20;99.90
7317;DHT22;3699;51.462;6.696;2022-11-20T00:59:03;0.70;99.90
7317;DHT22;3699;51.462;6.696;2022-11-20T01:01:30;0.00;99.90
7317;DHT22;3699;51.462;6.696;2022-11-20T01:03:57;0.00;99.90
7317;DHT22;3699;51.462;6.696;2022-11-20T01:06:26;-0.10;99.90
7317;DHT22;3699;51.462;6.696;2022-11-20T01:08:55;0.00;99.90
7317;DHT22;3699;51.462;6.696;2022-11-20T01:11:24;-0.30;99.90
7317;DHT22;3699;51.462;6.696;2022-11-20T01:13:52;-0.20;99.90
7317;DHT22;3699;51.462;6.696;2022-11-20T01:16:22;-0.20;99.90
7317;DHT22;3699;51.462;6.696;2022-11-20T01:18:51;-0.20;99.90
7317;DHT22;3699;51.462;6.696;2022-11-20T01:21:20;-0.30;99.90
7317;DHT22;3699;51.462;6.696;2022-11-20T01:23:48;-0.40;99.90
7317;DHT22;3699;51.462;6.696;2022-11-20T01:26:17;-0.20;99.90
7317;DHT22;3699;51.462;6.696;2022-11-20T01:28:45;-0.20;99.90
7317;DHT22;3699;51.462;6.696;2022-11-20T01:31:14;-0.20;99.90
7317;DHT22;3699;51.462;6.696;2022-11-20T01:33:42;0.00;99.90
7317;DHT22;3699;51.462;6.696;2022-11-20T01:36:10;0.10;99.90
7317;DHT22;3699;51.462;6.696;2022-11-20T01:38:37;0.10;99.90
7317;DHT22;3699;51.462;6.696;2022-11-20T01:41:04;0.20;99.90
7317;DHT22;3699;51.462;6.696;2022-11-20T01:43:31;0.10;99.90
7317;DHT22;3699;51.462;6.696;2022-11-20T01:46:12;0.10;99.90
7317;DHT22;3699;51.462;6.696;2022-11-20T01:48:44;0.10;99.90
7317;DHT22;3699;51.462;6.696;2022-11-20T01:51:17;0.30;99.90
7317;DHT22;3699;51.462;6.696;2022-11-20T01:53:46;0.00;99.90
7317;DHT22;3699;51.462;6.696;2022-11-20T01:56:13;0.40;99.90
7317;DHT22;3699;51.462;6.696;2022-11-20T01:58:45;0.50;99.90
7317;DHT22;3699;51.462;6.696;2022-11-20T02:01:15;0.50;99.90
7317;DHT22;3699;51.462;6.696;2022-11-20T02:03:42;0.50;99.90
7317;DHT22;3699;51.462;6.696;2022-11-20T02:06:14;0.50;99.90
7317;DHT22;3699;51.462;6.696;2022-11-20T02:08:41;0.70;99.90
7317;DHT22;3699;51.462;6.696;2022-11-20T02:11:08;1.00;99.90
7317;DHT22;3699;51.462;6.696;2022-11-20T02:13:35;0.80;99.90
7317;DHT22;3699;51.462;6.696;2022-11-20T02:16:12;0.70;99.90
7317;DHT22;3699;51.462;6.696;2022-11-20T02:18:42;0.90;99.90
7317;DHT22;3699;51.462;6.696;2022-11-20T02:21:27;1.30;99.90
7317;DHT22;3699;51.462;6.696;2022-11-20T02:24:04;0.90;99.90
7317;DHT22;3699;51.462;6.696;2022-11-20T02:26:34;1.00;99.90
7317;DHT22;3699;51.462;6.696;2022-11-20T02:29:05;0.90;99.90
7317;DHT22;3699;51.462;6.696;2022-11-20T02:31:37;1.10;99.90
7317;DHT22;3699;51.462;6.696;2022-11-20T02:34:05;0.90;99.90
7317;DHT22;3699;51.462;6.696;2022-11-20T02:36:33;1.00;99.90
7317;DHT22;3699;51.462;6.696;2022-11-20T02:39:00;0.80;99.90
7317;DHT22;3699;51.462;6.696;2022-11-20T02:41:33;1.80;99.90
7317;DHT22;3699;51.462;6.696;2022-11-20T02:44:00;1.10;99.90
7317;DHT22;3699;51.462;6.696;2022-11-20T02:46:26;1.30;99.90
7317;DHT22;3699;51.462;6.696;2022-11-20T02:48:53;1.30;99.90
7317;DHT22;3699;51.462;6.696;2022-11-20T02:51:20;1.20;99.90
7317;DHT22;3699;51.462;6.696;2022-11-20T02:53:47;1.90;99.90
7317;DHT22;3699;51.462;6.696;2022-11-20T02:56:13;1.30;99.90
7317;DHT22;3699;51.462;6.696;2022-11-20T02:58:41;1.40;99.90
7317;DHT22;3699;51.462;6.696;2022-11-20T03:01:08;1.40;99.90
7317;DHT22;3699;51.462;6.696;2022-11-20T03:03:35;1.90;99.90
7317;DHT22;3699;51.462;6.696;2022-11-20T03:06:02;1.40;99.90
7317;DHT22;3699;51.462;6.696;2022-11-20T03:08:28;1.40;99.90
7317;DHT22;3699;51.462;6.696;2022-11-20T03:10:55;1.50;99.90
7317;DHT22;3699;51.462;6.696;2022-11-20T03:13:22;1.40;99.90
7317;DHT22;3699;51.462;6.696;2022-11-20T03:15:50;1.40;99.90
7317;DHT22;3699;51.462;6.696;2022-11-20T03:18:16;1.40;99.90
7317;DHT22;3699;51.462;6.696;2022-11-20T03:20:43;1.40;99.90
7317;DHT22;3699;51.462;6.696;2022-11-20T03:23:10;1.50;99.90
7317;DHT22;3699;51.462;6.696;2022-11-20T03:25:37;1.70;99.90
7317;DHT22;3699;51.462;6.696;2022-11-20T03:28:03;1.50;99.90
7317;DHT22;3699;51.462;6.696;2022-11-20T03:30:30;1.40;99.90
7317;DHT22;3699;51.462;6.696;2022-11-20T03:32:58;1.60;99.90
7317;DHT22;3699;51.462;6.696;2022-11-20T03:35:25;1.60;99.90
7317;DHT22;3699;51.462;6.696;2022-11-20T03:37:52;1.50;99.90
7317;DHT22;3699;51.462;6.696;2022-11-20T03:40:18;1.60;99.90
7317;DHT22;3699;51.462;6.696;2022-11-20T03:42:45;1.60;99.90
7317;DHT22;3699;51.462;6.696;2022-11-20T03:47:39;1.80;99.90
7317;DHT22;3699;51.462;6.696;2022-11-20T03:50:08;1.80;99.90
7317;DHT22;3699;51.462;6.696;2022-11-20T03:52:35;1.70;99.90
7317;DHT22;3699;51.462;6.696;2022-11-20T03:55:02;1.80;99.90
7317;DHT22;3699;51.462;6.696;2022-11-20T03:57:29;1.70;99.90
7317;DHT22;3699;51.462;6.696;2022-11-20T03:59:55;1.70;99.90
7317;DHT22;3699;51.462;6.696;2022-11-20T04:02:22;1.80;99.90
7317;DHT22;3699;51.462;6.696;2022-11-20T04:04:49;2.00;99.90
7317;DHT22;3699;51.462;6.696;2022-11-20T04:07:17;2.00;99.90
7317;DHT22;3699;51.462;6.696;2022-11-20T04:09:44;1.80;99.90
7317;DHT22;3699;51.462;6.696;2022-11-20T04:12:10;2.00;99.90
7317;DHT22;3699;51.462;6.696;2022-11-20T04:14:37;2.10;99.90
7317;DHT22;3699;51.462;6.696;2022-11-20T04:17:04;2.00;99.90
7317;DHT22;3699;51.462;6.696;2022-11-20T04:19:30;2.20;99.90
7317;DHT22;3699;51.462;6.696;2022-11-20T04:21:57;2.50;99.90
7317;DHT22;3699;51.462;6.696;2022-11-20T04:24:26;2.00;99.90
7317;DHT22;3699;51.462;6.696;2022-11-20T04:26:53;2.20;99.90
7317;DHT22;3699;51.462;6.696;2022-11-20T04:29:19;2.10;99.90
7317;DHT22;3699;51.462;6.696;2022-11-20T04:31:46;2.20;99.90
7317;DHT22;3699;51.462;6.696;2022-11-20T04:34:13;1.70;99.90
7317;DHT22;3699;51.462;6.696;2022-11-20T04:36:39;2.20;99.90
7317;DHT22;3699;51.462;6.696;2022-11-20T04:39:06;2.20;99.90
7317;DHT22;3699;51.462;6.696;2022-11-20T04:41:35;2.50;99.90
7317;DHT22;3699;51.462;6.696;2022-11-20T04:44:04;2.20;99.90
7317;DHT22;3699;51.462;6.696;2022-11-20T04:46:33;2.20;99.90
7317;DHT22;3699;51.462;6.696;2022-11-20T04:49:00;2.30;99.90
7317;DHT22;3699;51.462;6.696;2022-11-20T04:51:27;2.20;99.90
7317;DHT22;3699;51.462;6.696;2022-11-20T04:53:53;2.10;99.90
7317;DHT22;3699;51.462;6.696;2022-11-20T04:56:20;2.10;99.90
7317;DHT22;3699;51.462;6.696;2022-11-20T04:58:48;2.40;99.90
7317;DHT22;3699;51.462;6.696;2022-11-20T05:01:16;2.20;99.90
7317;DHT22;3699;51.462;6.696;2022-11-20T05:03:44;2.30;99.90
7317;DHT22;3699;51.462;6.696;2022-11-20T05:06:13;2.10;99.90
7317;DHT22;3699;51.462;6.696;2022-11-20T05:08:40;2.30;99.90
7317;DHT22;3699;51.462;6.696;2022-11-20T05:11:08;2.20;99.90
7317;DHT22;3699;51.462;6.696;2022-11-20T05:13:36;2.30;99.90
7317;DHT22;3699;51.462;6.696;2022-11-20T05:16:06;2.30;99.90
7317;DHT22;3699;51.462;6.696;2022-11-20T05:18:33;2.70;99.90
7317;DHT22;3699;51.462;6.696;2022-11-20T05:21:00;2.30;99.90
7317;DHT22;3699;51.462;6.696;2022-11-20T05:23:28;2.30;99.90
7317;DHT22;3699;51.462;6.696;2022-11-20T05:25:56;2.40;99.90
7317;DHT22;3699;51.462;6.696;2022-11-20T05:28:23;2.20;99.90
7317;DHT22;3699;51.462;6.696;2022-11-20T05:30:50;2.20;99.90
7317;DHT22;3699;51.462;6.696;2022-11-20T05:33:19;2.30;99.90
7317;DHT22;3699;51.462;6.696;2022-11-20T05:35:45;2.20;99.90
7317;DHT22;3699;51.462;6.696;2022-11-20T05:38:13;2.10;99.90
7317;DHT22;3699;51.462;6.696;2022-11-20T05:40:40;2.20;99.90
7317;DHT22;3699;51.462;6.696;2022-11-20T05:43:06;2.20;99.90
7317;DHT22;3699;51.462;6.696;2022-11-20T05:45:33;2.30;99.90
7317;DHT22;3699;51.462;6.696;2022-11-20T05:48:00;2.30;99.90
7317;DHT22;3699;51.462;6.696;2022-11-20T05:50:28;2.10;99.90
7317;DHT22;3699;51.462;6.696;2022-11-20T05:52:57;2.30;99.90
7317;DHT22;3699;51.462;6.696;2022-11-20T05:55:24;2.40;99.90
7317;DHT22;3699;51.462;6.696;2022-11-20T05:57:52;2.20;99.90
7317;DHT22;3699;51.462;6.696;2022-11-20T06:00:19;2.10;99.90
7317;DHT22;3699;51.462;6.696;2022-11-20T06:02:46;2.20;99.90
7317;DHT22;3699;51.462;6.696;2022-11-20T06:05:13;2.00;99.90
7317;DHT22;3699;51.462;6.696;2022-11-20T06:07:41;2.20;99.90
7317;DHT22;3699;51.462;6.696;2022-11-20T06:10:08;2.40;99.90
7317;DHT22;3699;51.462;6.696;2022-11-20T06:12:35;2.00;99.90
7317;DHT22;3699;51.462;6.696;2022-11-20T06:15:02;2.20;99.90
7317;DHT22;3699;51.462;6.696;2022-11-20T06:22:23;2.10;99.90
7317;DHT22;3699;51.462;6.696;2022-11-20T06:24:51;2.00;99.90
7317;DHT22;3699;51.462;6.696;2022-11-20T06:27:17;2.00;99.90
7317;DHT22;3699;51.462;6.696;2022-11-20T06:29:44;1.90;99.90
7317;DHT22;3699;51.462;6.696;2022-11-20T06:32:11;2.00;99.90
7317;DHT22;3699;51.462;6.696;2022-11-20T06:34:38;2.00;99.90
7317;DHT22;3699;51.462;6.696;2022-11-20T06:37:04;2.00;99.90
7317;DHT22;3699;51.462;6.696;2022-11-20T06:39:31;2.60;99.90
7317;DHT22;3699;51.462;6.696;2022-11-20T06:41:59;2.00;99.90
7317;DHT22;3699;51.462;6.696;2022-11-20T06:44:26;2.20;99.90
7317;DHT22;3699;51.462;6.696;2022-11-20T06:46:52;2.10;99.90
7317;DHT22;3699;51.462;6.696;2022-11-20T06:49:19;2.10;99.90
7317;DHT22;3699;51.462;6.696;2022-11-20T06:51:46;2.00;99.90
7317;DHT22;3699;51.462;6.696;2022-11-20T06:54:12;2.20;99.90
7317;DHT22;3699;51.462;6.696;2022-11-20T06:56:39;2.10;99.90
7317;DHT22;3699;51.462;6.696;2022-11-20T06:59:07;2.40;99.90
7317;DHT22;3699;51.462;6.696;2022-11-20T07:01:34;2.40;99.90
7317;DHT22;3699;51.462;6.696;2022-11-20T07:04:01;2.20;99.90
7317;DHT22;3699;51.462;6.696;2022-11-20T07:06:28;2.20;99.90
7317;DHT22;3699;51.462;6.696;2022-11-20T07:08:55;2.20;99.90
7317;DHT22;3699;51.462;6.696;2022-11-20T07:11:22;2.20;99.90
7317;DHT22;3699;51.462;6.696;2022-11-20T07:13:48;2.30;99.90
7317;DHT22;3699;51.462;6.696;2022-11-20T07:16:17;1.40;99.90
7317;DHT22;3699;51.462;6.696;2022-11-20T07:18:43;2.30;99.90
7317;DHT22;3699;51.462;6.696;2022-11-20T07:21:10;2.50;99.90
7317;DHT22;3699;51.462;6.696;2022-11-20T07:23:37;2.50;99.90
7317;DHT22;3699;51.462;6.696;2022-11-20T07:26:05;2.50;99.90
7317;DHT22;3699;51.462;6.696;2022-11-20T07:28:32;2.50;99.90
7317;DHT22;3699;51.462;6.696;2022-11-20T07:30:59;2.70;99.90
7317;DHT22;3699;51.462;6.696;2022-11-20T07:33:27;2.50;99.90
7317;DHT22;3699;51.462;6.696;2022-11-20T07:35:54;2.60;99.90
7317;DHT22;3699;51.462;6.696;2022-11-20T07:38:20;2.50;99.90
7317;DHT22;3699;51.462;6.696;2022-11-20T07:40:47;2.70;99.90
7317;DHT22;3699;51.462;6.696;2022-11-20T07:43:14;2.70;99.90
7317;DHT22;3699;51.462;6.696;2022-11-20T07:45:41;2.80;99.90
7317;DHT22;3699;51.462;6.696;2022-11-20T07:48:07;3.00;99.90
7317;DHT22;3699;51.462;6.696;2022-11-20T07:50:35;2.80;99.90
7317;DHT22;3699;51.462;6.696;2022-11-20T07:53:03;3.20;99.90
7317;DHT22;3699;51.462;6.696;2022-11-20T07:55:30;2.90;99.90
7317;DHT22;3699;51.462;6.696;2022-11-20T07:57:57;3.10;99.90
7317;DHT22;3699;51.462;6.696;2022-11-20T08:00:25;3.00;99.90
7317;DHT22;3699;51.462;6.696;2022-11-20T08:02:52;3.10;99.90
7317;DHT22;3699;51.462;6.696;2022-11-20T08:05:18;3.20;99.90
7317;DHT22;3699;51.462;6.696;2022-11-20T08:07:46;3.50;99.90
7317;DHT22;3699;51.462;6.696;2022-11-20T08:10:14;3.20;99.90
7317;DHT22;3699;51.462;6.696;2022-11-20T08:12:45;3.40;99.90
7317;DHT22;3699;51.462;6.696;2022-11-20T08:15:30;3.20;99.90
7317;DHT22;3699;51.462;6.696;2022-11-20T08:18:01;3.40;99.90
7317;DHT22;3699;51.462;6.696;2022-11-20T08:20:28;3.50;99.90
7317;DHT22;3699;51.462;6.696;2022-11-20T08:22:59;3.50;99.90
7317;DHT22;3699;51.462;6.696;2022-11-20T08:25:27;3.40;99.90
7317;DHT22;3699;51.462;6.696;2022-11-20T08:27:54;3.60;99.90
7317;DHT22;3699;51.462;6.696;2022-11-20T08:30:22;3.60;99.90
7317;DHT22;3699;51.462;6.696;2022-11-20T08:32:49;3.60;99.90
7317;DHT22;3699;51.462;6.696;2022-11-20T08:37:46;3.70;99.90
7317;DHT22;3699;51.462;6.696;2022-11-20T08:40:14;4.40;99.90
7317;DHT22;3699;51.462;6.696;2022-11-20T08:42:46;3.90;99.90
7317;DHT22;3699;51.462;6.696;2022-11-20T08:45:13;3.80;99.90
7317;DHT22;3699;51.462;6.696;2022-11-20T08:47:40;4.00;99.90
7317;DHT22;3699;51.462;6.696;2022-11-20T08:50:08;4.10;99.90
7317;DHT22;3699;51.462;6.696;2022-11-20T08:52:35;4.40;99.90
7317;DHT22;3699;51.462;6.696;2022-11-20T08:55:03;4.30;99.90
7317;DHT22;3699;51.462;6.696;2022-11-20T08:57:32;4.40;99.90
7317;DHT22;3699;51.462;6.696;2022-11-20T08:59:59;4.50;99.90
7317;DHT22;3699;51.462;6.696;2022-11-20T09:02:26;4.50;99.90
7317;DHT22;3699;51.462;6.696;2022-11-20T09:04:53;4.50;99.90
7317;DHT22;3699;51.462;6.696;2022-11-20T09:07:20;4.50;99.90
7317;DHT22;3699;51.462;6.696;2022-11-20T09:09:47;4.60;99.90
7317;DHT22;3699;51.462;6.696;2022-11-20T09:14:42;4.70;99.90
7317;DHT22;3699;51.462;6.696;2022-11-20T09:17:10;5.30;99.90
7317;DHT22;3699;51.462;6.696;2022-11-20T09:19:38;5.20;99.90
7317;DHT22;3699;51.462;6.696;2022-11-20T09:22:05;5.50;99.90
7317;DHT22;3699;51.462;6.696;2022-11-20T09:24:32;5.60;99.90
7317;DHT22;3699;51.462;6.696;2022-11-20T09:27:02;5.50;99.90
7317;DHT22;3699;51.462;6.696;2022-11-20T09:29:28;5.60;99.90
7317;DHT22;3699;51.462;6.696;2022-11-20T09:31:56;5.60;99.90
7317;DHT22;3699;51.462;6.696;2022-11-20T09:34:23;5.70;99.90
7317;DHT22;3699;51.462;6.696;2022-11-20T09:36:50;5.50;99.90
7317;DHT22;3699;51.462;6.696;2022-11-20T09:41:56;5.60;99.90
7317;DHT22;3699;51.462;6.696;2022-11-20T09:44:37;6.00;99.90
7317;DHT22;3699;51.462;6.696;2022-11-20T09:47:11;5.10;99.90
7317;DHT22;3699;51.462;6.696;2022-11-20T09:49:54;5.50;99.90
7317;DHT22;3699;51.462;6.696;2022-11-20T09:52:32;5.50;99.90
7317;DHT22;3699;51.462;6.696;2022-11-20T09:55:07;5.50;99.90
7317;DHT22;3699;51.462;6.696;2022-11-20T09:57:36;5.40;99.90
7317;DHT22;3699;51.462;6.696;2022-11-20T10:00:08;5.20;99.90
7317;DHT22;3699;51.462;6.696;2022-11-20T10:02:42;5.30;99.90
7317;DHT22;3699;51.462;6.696;2022-11-20T10:05:15;5.30;99.90
7317;DHT22;3699;51.462;6.696;2022-11-20T10:07:48;5.30;99.90
7317;DHT22;3699;51.462;6.696;2022-11-20T10:10:30;5.20;99.90
7317;DHT22;3699;51.462;6.696;2022-11-20T10:13:16;4.80;99.90
7317;DHT22;3699;51.462;6.696;2022-11-20T10:15:52;5.60;99.90
7317;DHT22;3699;51.462;6.696;2022-11-20T10:18:32;5.20;99.90
7317;DHT22;3699;51.462;6.696;2022-11-20T10:21:08;5.50;99.90
7317;DHT22;3699;51.462;6.696;2022-11-20T10:23:49;5.70;99.90
7317;DHT22;3699;51.462;6.696;2022-11-20T10:26:25;5.70;99.90
7317;DHT22;3699;51.462;6.696;2022-11-20T10:29:06;5.30;99.90
7317;DHT22;3699;51.462;6.696;2022-11-20T10:31:37;5.90;99.90
7317;DHT22;3699;51.462;6.696;2022-11-20T10:34:12;5.40;99.90
7317;DHT22;3699;51.462;6.696;2022-11-20T10:36:45;6.00;99.90
7317;DHT22;3699;51.462;6.696;2022-11-20T10:39:16;6.30;99.90
7317;DHT22;3699;51.462;6.696;2022-11-20T10:41:46;6.50;99.90
7317;DHT22;3699;51.462;6.696;2022-11-20T10:44:16;6.20;99.90
7317;DHT22;3699;51.462;6.696;2022-11-20T10:47:05;6.30;99.90
7317;DHT22;3699;51.462;6.696;2022-11-20T10:49:36;6.60;99.90
7317;DHT22;3699;51.462;6.696;2022-11-20T10:52:11;6.50;99.90
7317;DHT22;3699;51.462;6.696;2022-11-20T10:54:43;6.50;99.90
7317;DHT22;3699;51.462;6.696;2022-11-20T10:57:31;6.60;99.90
7317;DHT22;3699;51.462;6.696;2022-11-20T11:00:03;6.50;99.90
7317;DHT22;3699;51.462;6.696;2022-11-20T11:02:42;6.50;99.90
7317;DHT22;3699;51.462;6.696;2022-11-20T11:05:22;6.50;99.90
7317;DHT22;3699;51.462;6.696;2022-11-20T11:07:53;6.50;99.90
7317;DHT22;3699;51.462;6.696;2022-11-20T11:10:24;6.40;99.90
7317;DHT22;3699;51.462;6.696;2022-11-20T11:12:52;6.50;99.90
7317;DHT22;3699;51.462;6.696;2022-11-20T11:15:26;6.50;99.90
7317;DHT22;3699;51.462;6.696;2022-11-20T11:17:54;6.20;99.90
7317;DHT22;3699;51.462;6.696;2022-11-20T11:20:23;6.50;99.90
7317;DHT22;3699;51.462;6.696;2022-11-20T11:22:52;6.30;99.90
7317;DHT22;3699;51.462;6.696;2022-11-20T11:25:31;6.20;99.90
7317;DHT22;3699;51.462;6.696;2022-11-20T11:28:00;6.30;99.90
7317;DHT22;3699;51.462;6.696;2022-11-20T11:30:28;6.40;99.90
7317;DHT22;3699;51.462;6.696;2022-11-20T11:33:05;6.30;99.90
7317;DHT22;3699;51.462;6.696;2022-11-20T11:35:43;6.30;99.90
7317;DHT22;3699;51.462;6.696;2022-11-20T11:38:15;6.20;99.90
7317;DHT22;3699;51.462;6.696;2022-11-20T11:40:42;6.20;99.90
7317;DHT22;3699;51.462;6.696;2022-11-20T11:43:18;6.40;99.90
7317;DHT22;3699;51.462;6.696;2022-11-20T11:46:00;6.30;99.90
7317;DHT22;3699;51.462;6.696;2022-11-20T11:48:27;6.20;99.90
7317;DHT22;3699;51.462;6.696;2022-11-20T11:50:55;6.30;99.90
7317;DHT22;3699;51.462;6.696;2022-11-20T11:53:23;6.30;99.90
7317;DHT22;3699;51.462;6.696;2022-11-20T11:55:56;6.30;99.90
7317;DHT22;3699;51.462;6.696;2022-11-20T11:58:38;6.50;99.90
7317;DHT22;3699;51.462;6.696;2022-11-20T12:01:18;6.30;99.90
7317;DHT22;3699;51.462;6.696;2022-11-20T12:03:54;6.30;99.90
7317;DHT22;3699;51.462;6.696;2022-11-20T12:06:23;6.30;99.90
7317;DHT22;3699;51.462;6.696;2022-11-20T12:08:56;6.20;99.90
7317;DHT22;3699;51.462;6.696;2022-11-20T12:11:30;6.40;99.90
7317;DHT22;3699;51.462;6.696;2022-11-20T12:14:03;6.30;99.90
7317;DHT22;3699;51.462;6.696;2022-11-20T12:16:35;6.20;99.90
7317;DHT22;3699;51.462;6.696;2022-11-20T12:19:04;6.10;99.90
7317;DHT22;3699;51.462;6.696;2022-11-20T12:21:43;6.30;99.90
7317;DHT22;3699;51.462;6.696;2022-11-20T12:24:29;6.00;99.90
7317;DHT22;3699;51.462;6.696;2022-11-20T12:27:05;6.20;99.90
7317;DHT22;3699;51.462;6.696;2022-11-20T12:29:43;6.20;99.90
7317;DHT22;3699;51.462;6.696;2022-11-20T12:32:42;6.30;99.90
7317;DHT22;3699;51.462;6.696;2022-11-20T12:35:29;6.40;99.90
7317;DHT22;3699;51.462;6.696;2022-11-20T12:38:13;6.40;99.90
7317;DHT22;3699;51.462;6.696;2022-11-20T12:40:50;6.30;99.90
7317;DHT22;3699;51.462;6.696;2022-11-20T12:43:21;6.20;99.90
7317;DHT22;3699;51.462;6.696;2022-11-20T12:46:24;6.10;99.90
7317;DHT22;3699;51.462;6.696;2022-11-20T12:49:05;6.70;99.90
7317;DHT22;3699;51.462;6.696;2022-11-20T12:54:43;6.70;99.90
7317;DHT22;3699;51.462;6.696;2022-11-20T12:57:16;6.50;99.90
7317;DHT22;3699;51.462;6.696;2022-11-20T13:00:00;6.60;99.90
7317;DHT22;3699;51.462;6.696;2022-11-20T13:02:35;6.60;99.90
7317;DHT22;3699;51.462;6.696;2022-11-20T13:05:18;7.00;99.90
7317;DHT22;3699;51.462;6.696;2022-11-20T13:07:46;6.60;99.90
7317;DHT22;3699;51.462;6.696;2022-11-20T13:10:20;6.70;99.90
7317;DHT22;3699;51.462;6.696;2022-11-20T13:12:51;6.70;99.90
7317;DHT22;3699;51.462;6.696;2022-11-20T13:15:35;6.70;99.90
7317;DHT22;3699;51.462;6.696;2022-11-20T13:18:05;6.20;99.90
7317;DHT22;3699;51.462;6.696;2022-11-20T13:20:35;6.50;99.90
7317;DHT22;3699;51.462;6.696;2022-11-20T13:23:02;6.50;99.90
7317;DHT22;3699;51.462;6.696;2022-11-20T13:25:31;6.50;99.90
7317;DHT22;3699;51.462;6.696;2022-11-20T13:28:03;6.40;99.90
7317;DHT22;3699;51.462;6.696;2022-11-20T13:30:30;6.50;99.90
7317;DHT22;3699;51.462;6.696;2022-11-20T13:33:01;6.20;99.90
7317;DHT22;3699;51.462;6.696;2022-11-20T13:35:32;6.30;99.90
7317;DHT22;3699;51.462;6.696;2022-11-20T13:38:09;6.30;99.90
7317;DHT22;3699;51.462;6.696;2022-11-20T13:40:50;6.20;99.90
7317;DHT22;3699;51.462;6.696;2022-11-20T13:43:22;6.10;99.90
7317;DHT22;3699;51.462;6.696;2022-11-20T13:45:58;6.00;99.90
7317;DHT22;3699;51.462;6.696;2022-11-20T13:48:29;5.50;99.90
7317;DHT22;3699;51.462;6.696;2022-11-20T13:51:08;6.00;99.90
7317;DHT22;3699;51.462;6.696;2022-11-20T13:53:58;6.00;99.90
7317;DHT22;3699;51.462;6.696;2022-11-20T13:56:39;6.00;99.90
7317;DHT22;3699;51.462;6.696;2022-11-20T13:59:14;6.00;99.90
7317;DHT22;3699;51.462;6.696;2022-11-20T14:01:46;6.00;99.90
7317;DHT22;3699;51.462;6.696;2022-11-20T14:04:17;6.00;99.90
7317;DHT22;3699;51.462;6.696;2022-11-20T14:06:46;6.00;99.90
7317;DHT22;3699;51.462;6.696;2022-11-20T14:09:26;5.90;99.90
7317;DHT22;3699;51.462;6.696;2022-11-20T14:11:55;6.00;99.90
7317;DHT22;3699;51.462;6.696;2022-11-20T14:14:23;6.00;99.90
7317;DHT22;3699;51.462;6.696;2022-11-20T14:16:50;5.90;99.90
7317;DHT22;3699;51.462;6.696;2022-11-20T14:19:25;6.00;99.90
7317;DHT22;3699;51.462;6.696;2022-11-20T14:21:54;5.90;99.90
7317;DHT22;3699;51.462;6.696;2022-11-20T14:24:23;6.00;99.90
7317;DHT22;3699;51.462;6.696;2022-11-20T14:26:51;5.80;99.90
7317;DHT22;3699;51.462;6.696;2022-11-20T14:29:22;6.00;99.90
7317;DHT22;3699;51.462;6.696;2022-11-20T14:31:52;5.90;99.90
7317;DHT22;3699;51.462;6.696;2022-11-20T14:34:21;5.90;99.90
7317;DHT22;3699;51.462;6.696;2022-11-20T14:36:49;5.90;99.90
7317;DHT22;3699;51.462;6.696;2022-11-20T14:39:20;5.90;99.90
7317;DHT22;3699;51.462;6.696;2022-11-20T14:41:50;5.90;99.90
7317;DHT22;3699;51.462;6.696;2022-11-20T14:44:18;5.80;99.90
7317;DHT22;3699;51.462;6.696;2022-11-20T14:46:46;5.80;99.90
7317;DHT22;3699;51.462;6.696;2022-11-20T14:49:13;5.70;99.90
7317;DHT22;3699;51.462;6.696;2022-11-20T14:51:40;5.80;99.90
7317;DHT22;3699;51.462;6.696;2022-11-20T14:54:11;5.80;99.90
7317;DHT22;3699;51.462;6.696;2022-11-20T14:56:38;5.50;99.90
7317;DHT22;3699;51.462;6.696;2022-11-20T14:59:05;5.80;99.90
7317;DHT22;3699;51.462;6.696;2022-11-20T15:01:34;5.80;99.90
7317;DHT22;3699;51.462;6.696;2022-11-20T15:04:06;5.80;99.90
7317;DHT22;3699;51.462;6.696;2022-11-20T15:06:34;5.80;99.90
7317;DHT22;3699;51.462;6.696;2022-11-20T15:09:02;5.90;99.90
7317;DHT22;3699;51.462;6.696;2022-11-20T15:11:30;5.90;99.90
7317;DHT22;3699;51.462;6.696;2022-11-20T15:14:02;5.90;99.90
7317;DHT22;3699;51.462;6.696;2022-11-20T15:16:29;6.20;99.90
7317;DHT22;3699;51.462;6.696;2022-11-20T15:18:57;5.90;99.90
7317;DHT22;3699;51.462;6.696;2022-11-20T15:21:24;5.90;99.90
7317;DHT22;3699;51.462;6.696;2022-11-20T15:23:51;5.90;99.90
7317;DHT22;3699;51.462;6.696;2022-11-20T15:26:22;5.90;99.90
7317;DHT22;3699;51.462;6.696;2022-11-20T15:28:50;5.80;99.90
7317;DHT22;3699;51.462;6.696;2022-11-20T15:31:19;5.90;99.90
7317;DHT22;3699;51.462;6.696;2022-11-20T15:33:46;5.90;99.90
7317;DHT22;3699;51.462;6.696;2022-11-20T15:36:22;5.80;99.90
7317;DHT22;3699;51.462;6.696;2022-11-20T15:38:49;5.80;99.90
7317;DHT22;3699;51.462;6.696;2022-11-20T15:41:16;5.80;99.90
7317;DHT22;3699;51.462;6.696;2022-11-20T15:43:42;5.90;99.90
7317;DHT22;3699;51.462;6.696;2022-11-20T15:46:11;5.90;99.90
7317;DHT22;3699;51.462;6.696;2022-11-20T15:48:41;5.90;99.90
7317;DHT22;3699;51.462;6.696;2022-11-20T15:51:26;5.90;99.90
7317;DHT22;3699;51.462;6.696;2022-11-20T15:53:55;5.90;99.90
7317;DHT22;3699;51.462;6.696;2022-11-20T15:56:22;5.90;99.90
7317;DHT22;3699;51.462;6.696;2022-11-20T15:58:49;5.90;99.90
7317;DHT22;3699;51.462;6.696;2022-11-20T16:01:17;5.90;99.90
7317;DHT22;3699;51.462;6.696;2022-11-20T16:03:45;5.90;99.90
7317;DHT22;3699;51.462;6.696;2022-11-20T16:06:11;6.00;99.90
7317;DHT22;3699;51.462;6.696;2022-11-20T16:08:39;6.10;99.90
7317;DHT22;3699;51.462;6.696;2022-11-20T16:11:06;6.10;99.90
7317;DHT22;3699;51.462;6.696;2022-11-20T16:13:34;6.10;99.90
7317;DHT22;3699;51.462;6.696;2022-11-20T16:16:21;6.10;99.90
7317;DHT22;3699;51.462;6.696;2022-11-20T16:18:48;6.00;99.90
7317;DHT22;3699;51.462;6.696;2022-11-20T16:21:15;6.00;99.90
7317;DHT22;3699;51.462;6.696;2022-11-20T16:23:43;6.00;99.90
7317;DHT22;3699;51.462;6.696;2022-11-20T16:26:11;6.00;99.90
7317;DHT22;3699;51.462;6.696;2022-11-20T16:28:38;6.00;99.90
7317;DHT22;3699;51.462;6.696;2022-11-20T16:31:09;6.00;99.90
7317;DHT22;3699;51.462;6.696;2022-11-20T16:33:36;6.00;99.90
7317;DHT22;3699;51.462;6.696;2022-11-20T16:36:07;6.00;99.90
7317;DHT22;3699;51.462;6.696;2022-11-20T16:38:34;6.00;99.90
7317;DHT22;3699;51.462;6.696;2022-11-20T16:41:03;6.00;99.90
7317;DHT22;3699;51.462;6.696;2022-11-20T16:43:30;6.00;99.90
7317;DHT22;3699;51.462;6.696;2022-11-20T16:45:57;6.00;99.90
7317;DHT22;3699;51.462;6.696;2022-11-20T16:48:24;6.00;99.90
7317;DHT22;3699;51.462;6.696;2022-11-20T16:50:52;6.00;99.90
7317;DHT22;3699;51.462;6.696;2022-11-20T16:53:20;6.00;99.90